TimeCST,TemperatureF,Dew PointF,Humidity,Sea Level PressureIn,VisibilityMPH,Wind Direction,Wind SpeedMPH,Gust SpeedMPH,PrecipitationIn,Events,Conditions,WindDirDegrees,DateUTC
12:53 AM,66.0,55.9,70,29.72,10.0,South,15.0,24.2,N/A,,Clear,180,2012-11-10 06:53:00
1:53 AM,66.9,55.9,68,29.72,10.0,South,17.3,27.6,N/A,,Clear,180,2012-11-10 07:53:00
2:53 AM,66.9,55.9,68,29.72,10.0,South,17.3,25.3,N/A,,Clear,180,2012-11-10 08:53:00
3:53 AM,66.9,55.9,68,29.70,10.0,South,17.3,28.8,N/A,,Clear,170,2012-11-10 09:53:00
4:53 AM,66.0,55.0,68,29.70,10.0,South,16.1,28.8,N/A,,Clear,170,2012-11-10 10:53:00
5:53 AM,64.9,55.0,70,29.71,10.0,South,18.4,26.5,N/A,,Clear,180,2012-11-10 11:53:00
6:53 AM,64.0,55.0,73,29.72,10.0,South,23.0,29.9,N/A,,Clear,190,2012-11-10 12:53:00
7:53 AM,64.0,54.0,70,29.74,10.0,South,21.9,32.2,N/A,,Clear,190,2012-11-10 13:53:00
8:53 AM,66.0,54.0,65,29.75,10.0,South,28.8,34.5,N/A,,Clear,190,2012-11-10 14:53:00
9:53 AM,70.0,55.0,59,29.74,10.0,South,27.6,40.3,N/A,,Clear,190,2012-11-10 15:53:00
10:53 AM,69.1,55.9,63,29.71,10.0,South,27.6,40.3,N/A,,Partly Cloudy,170,2012-11-10 16:53:00
11:53 AM,71.1,55.9,59,29.69,10.0,South,23.0,35.7,N/A,,Clear,180,2012-11-10 17:53:00
12:53 PM,73.9,57.0,55,29.65,10.0,South,27.6,42.6,N/A,,Clear,180,2012-11-10 18:53:00
1:53 PM,73.0,55.9,55,29.65,10.0,South,25.3,34.5,N/A,,Scattered Clouds,180,2012-11-10 19:53:00
2:53 PM,72.0,57.0,59,29.64,10.0,South,15.0,27.6,0.00,Rain,Light Rain,180,2012-11-10 20:53:00
3:53 PM,72.0,55.9,57,29.64,10.0,South,20.7,29.9,0.00,,Overcast,180,2012-11-10 21:53:00
4:53 PM,71.1,54.0,55,29.64,10.0,South,20.7,32.2,N/A,,Overcast,170,2012-11-10 22:53:00
5:53 PM,70.0,54.0,57,29.65,10.0,SSE,20.7,31.1,N/A,,Clear,160,2012-11-10 23:53:00
6:53 PM,69.1,54.0,58,29.65,10.0,South,20.7,29.9,N/A,,Clear,170,2012-11-11 00:53:00
7:53 PM,69.1,53.1,57,29.65,10.0,South,16.1,26.5,N/A,,Clear,170,2012-11-11 01:53:00
8:53 PM,68.0,53.1,59,29.62,10.0,South,23.0,38.0,N/A,,Clear,170,2012-11-11 02:53:00
9:53 PM,68.0,53.1,59,29.63,10.0,South,20.7,32.2,N/A,,Clear,170,2012-11-11 03:53:00
10:53 PM,69.1,54.0,58,29.64,10.0,South,23.0,34.5,N/A,,Partly Cloudy,180,2012-11-11 04:53:00
11:53 PM,69.1,54.0,58,29.65,10.0,South,23.0,32.2,N/A,,Overcast,190,2012-11-11 05:53:00